Time;durP1;ratioP1;P1;durP2;ratioP2;P2;SDS_P1;SDS_P2;PMS_P1;PMS_P2;Temp;Humidity;BMP_temperature;BMP_pressure;BME280_temperature;BME280_humidity;BME280_pressure;Samples;Min_cycle;Max_cycle;Signal;HPM_P1;HPM_P2
2022/09/07 00:00:51;;;;;;;20.08;11.55;;;;;;;;;;5145068;27;20046;-76
2022/09/07 00:03:17;;;;;;;20.48;11.35;;;;;;;;;;5151710;27;20359;-78
2022/09/07 00:05:44;;;;;;;20.20;11.88;;;;;;;;;;5147474;27;20038;-79
2022/09/07 00:08:10;;;;;;;22.27;12.35;;;;;;;;;;5150685;27;20038;-77
2022/09/07 00:10:36;;;;;;;24.70;12.20;;;;;;;;;;5131871;27;20125;-77
2022/09/07 00:13:02;;;;;;;17.85;11.70;;;;;;;;;;5148732;27;20074;-77
2022/09/07 00:15:28;;;;;;;;;;;;;;;;;;5140791;27;20069;-76
2022/09/07 00:17:54;;;;;;;18.83;11.98;;;;;;;;;;5145104;27;19923;-76
2022/09/07 00:20:22;;;;;;;19.58;11.95;;;;;;;;;;5128592;27;20046;-76
2022/09/07 00:22:48;;;;;;;16.23;12.32;;;;;;;;;;5149291;27;20378;-76
2022/09/07 00:25:14;;;;;;;20.10;12.80;;;;;;;;;;5146192;27;20043;-76
2022/09/07 00:27:43;;;;;;;19.65;12.23;;;;;;;;;;5150867;27;20153;-75
2022/09/07 00:30:09;;;;;;;;;;;;;;;;;;5147359;27;20057;-74
2022/09/07 00:32:35;;;;;;;20.75;12.30;;;;;;;;;;5150686;27;19919;-75
2022/09/07 00:35:01;;;;;;;;;;;;;;;;;;5148854;27;20039;-74
2022/09/07 00:37:27;;;;;;;19.45;13.00;;;;;;;;;;5129717;27;19925;-76
2022/09/07 00:39:53;;;;;;;22.40;13.68;;;;;;;;;;5146059;27;20042;-78
2022/09/07 00:42:19;;;;;;;;;;;;;;;;;;5149573;27;20093;-75
2022/09/07 00:44:45;;;;;;;19.52;13.13;;;;;;;;;;5146321;27;19944;-75
2022/09/07 00:47:20;;;;;;;27.50;13.57;;;;;;;;;;5147958;27;20138;-74
2022/09/07 00:49:49;;;;;;;20.23;13.18;;;;;;;;;;5147907;27;20047;-78
2022/09/07 00:52:16;;;;;;;17.65;13.15;;;;;;;;;;5145579;27;20576;-73
2022/09/07 00:54:45;;;;;;;23.13;14.13;;;;;;;;;;5147340;27;20047;-74
2022/09/07 00:57:11;;;;;;;19.98;13.80;;;;;;;;;;5147635;27;20118;-73
2022/09/07 00:59:44;;;;;;;18.63;13.43;;;;;;;;;;5148557;27;20427;-73
2022/09/07 01:02:11;;;;;;;24.42;13.30;;;;;;;;;;5145268;27;20042;-73
2022/09/07 01:04:38;;;;;;;23.50;13.90;;;;;;;;;;5147667;27;20043;-74
2022/09/07 01:07:04;;;;;;;20.15;13.23;;;;;;;;;;5113554;27;20087;-74
2022/09/07 01:09:31;;;;;;;20.65;14.05;;;;;;;;;;5149679;27;20328;-75
2022/09/07 01:11:58;;;;;;;25.55;13.68;;;;;;;;;;5146260;27;20351;-74
2022/09/07 01:14:29;;;;;;;22.08;13.75;;;;;;;;;;5128617;27;20213;-76
2022/09/07 01:17:14;;;;;;;25.02;14.27;;;;;;;;;;5147115;27;20035;-75
2022/09/07 01:19:59;;;;;;;23.75;13.73;;;;;;;;;;5146685;27;20099;-75
2022/09/07 01:22:54;;;;;;;18.15;13.52;;;;;;;;;;5125981;27;20043;-75
2022/09/07 01:25:36;;;;;;;20.83;14.35;;;;;;;;;;5138533;27;20125;-75
2022/09/07 01:28:05;;;;;;;21.60;14.65;;;;;;;;;;5149743;27;20073;-77
2022/09/07 01:30:34;;;;;;;22.30;14.30;;;;;;;;;;5147249;27;20049;-81
2022/09/07 01:33:18;;;;;;;26.00;14.95;;;;;;;;;;5147554;27;20442;-79
2022/09/07 01:35:47;;;;;;;28.35;15.35;;;;;;;;;;5149235;27;20087;-74
2022/09/07 01:38:32;;;;;;;32.72;17.13;;;;;;;;;;5130278;27;20050;-69
2022/09/07 01:41:04;;;;;;;26.38;17.40;;;;;;;;;;5145432;27;20466;-76
2022/09/07 01:43:30;;;;;;;25.13;18.55;;;;;;;;;;5147611;27;20043;-65
2022/09/07 01:45:58;;;;;;;37.35;22.45;;;;;;;;;;5148738;27;20424;-66
2022/09/07 01:48:25;;;;;;;48.88;27.50;;;;;;;;;;5149363;27;20492;-67
2022/09/07 01:50:55;;;;;;;34.78;22.75;;;;;;;;;;5126356;27;20094;-68
2022/09/07 01:53:25;;;;;;;32.00;20.35;;;;;;;;;;5143284;27;20046;-68
2022/09/07 01:55:58;;;;;;;25.98;16.52;;;;;;;;;;5146535;27;20050;-69
2022/09/07 01:58:35;;;;;;;26.63;15.90;;;;;;;;;;5148198;27;20050;-72
2022/09/07 02:01:04;;;;;;;27.88;17.92;;;;;;;;;;5145541;27;20115;-72
2022/09/07 02:03:33;;;;;;;33.75;19.77;;;;;;;;;;5144449;27;20447;-71
2022/09/07 02:06:03;;;;;;;39.95;25.67;;;;;;;;;;5136216;27;20459;-71
2022/09/07 02:08:35;;;;;;;43.78;29.17;;;;;;;;;;5148352;27;20141;-72
2022/09/07 02:11:04;;;;;;;44.80;29.50;;;;;;;;;;5148358;27;20051;-71
2022/09/07 02:13:30;;;;;;;29.85;19.83;;;;;;;;;;5146529;27;20130;-74
2022/09/07 02:16:01;;;;;;;44.40;23.30;;;;;;;;;;5149734;27;20114;-72
2022/09/07 02:18:29;;;;;;;33.95;20.23;;;;;;;;;;5150752;27;20096;-71
2022/09/07 02:20:57;;;;;;;32.95;19.70;;;;;;;;;;5130977;27;20407;-70
2022/09/07 02:23:25;;;;;;;35.63;21.77;;;;;;;;;;5150223;27;20043;-70
2022/09/07 02:25:54;;;;;;;98.00;39.15;;;;;;;;;;5149771;27;20061;-70
2022/09/07 02:28:23;;;;;;;77.82;34.38;;;;;;;;;;5131038;27;20050;-71
2022/09/07 02:30:49;;;;;;;104.10;39.25;;;;;;;;;;5150629;27;20123;-71
2022/09/07 02:33:15;;;;;;;83.10;34.53;;;;;;;;;;5152240;27;20454;-70
2022/09/07 02:35:41;;;;;;;55.53;29.98;;;;;;;;;;5143082;27;20385;-71
2022/09/07 02:38:07;;;;;;;73.35;31.98;;;;;;;;;;5151991;27;20057;-70
2022/09/07 02:40:33;;;;;;;37.78;21.67;;;;;;;;;;5147884;27;20049;-71
2022/09/07 02:43:01;;;;;;;39.72;22.42;;;;;;;;;;5151550;27;20135;-72
2022/09/07 02:45:34;;;;;;;26.17;16.85;;;;;;;;;;5147635;27;20469;-71
2022/09/07 02:48:00;;;;;;;21.52;14.27;;;;;;;;;;5150587;27;20039;-71
2022/09/07 02:50:37;;;;;;;23.55;16.55;;;;;;;;;;5129843;27;20034;-72
2022/09/07 02:53:12;;;;;;;25.15;15.73;;;;;;;;;;5150907;27;20050;-68
2022/09/07 02:55:56;;;;;;;36.45;20.40;;;;;;;;;;5149211;27;20054;-68
2022/09/07 02:58:41;;;;;;;30.75;19.02;;;;;;;;;;5150922;27;20107;-68
2022/09/07 03:01:07;;;;;;;88.63;32.80;;;;;;;;;;5150802;27;20058;-67
2022/09/07 03:03:51;;;;;;;37.22;21.73;;;;;;;;;;5151915;27;20042;-67
2022/09/07 03:06:23;;;;;;;28.20;17.48;;;;;;;;;;5148341;27;20450;-68
2022/09/07 03:08:52;;;;;;;22.20;14.35;;;;;;;;;;5152340;27;20118;-67
2022/09/07 03:11:18;;;;;;;26.05;16.17;;;;;;;;;;5149420;27;20125;-69
2022/09/07 03:13:45;;;;;;;69.40;27.40;;;;;;;;;;5150848;27;20043;-67
2022/09/07 03:16:14;;;;;;;62.08;30.23;;;;;;;;;;5149830;27;20046;-67
2022/09/07 03:18:41;;;;;;;71.28;28.35;;;;;;;;;;5149306;27;20035;-67
2022/09/07 03:21:07;;;;;;;48.53;23.95;;;;;;;;;;5133309;27;20446;-67
2022/09/07 03:23:33;;;;;;;33.30;20.52;;;;;;;;;;5129755;27;20527;-67
2022/09/07 03:26:00;;;;;;;57.90;27.58;;;;;;;;;;5146907;27;20058;-67
2022/09/07 03:28:26;;;;;;;;;;;;;;;;;;5149262;27;20095;-67
2022/09/07 03:30:52;;;;;;;30.58;18.40;;;;;;;;;;5151914;27;19923;-67
2022/09/07 03:33:18;;;;;;;108.35;38.45;;;;;;;;;;5147823;27;20332;-70
2022/09/07 03:35:45;;;;;;;26.10;17.20;;;;;;;;;;5150042;27;20098;-67
2022/09/07 03:38:11;;;;;;;22.63;14.80;;;;;;;;;;5150365;27;20197;-66
2022/09/07 03:40:37;;;;;;;29.58;17.92;;;;;;;;;;5151070;27;20043;-66
2022/09/07 03:43:03;;;;;;;23.10;14.55;;;;;;;;;;5149220;27;20051;-66
2022/09/07 03:45:29;;;;;;;33.67;20.05;;;;;;;;;;5148901;27;20438;-66
2022/09/07 03:47:55;;;;;;;25.73;17.15;;;;;;;;;;5148047;27;20053;-66
2022/09/07 03:50:22;;;;;;;92.53;31.67;;;;;;;;;;5150939;27;20514;-68
2022/09/07 03:52:48;;;;;;;37.05;21.30;;;;;;;;;;5146963;27;20035;-67
2022/09/07 03:55:14;;;;;;;64.90;28.13;;;;;;;;;;5149876;27;20126;-66
2022/09/07 03:57:41;;;;;;;37.65;19.80;;;;;;;;;;5148113;27;20034;-67
2022/09/07 04:00:08;;;;;;;31.73;18.90;;;;;;;;;;5151707;27;20048;-67
2022/09/07 04:02:34;;;;;;;33.13;19.88;;;;;;;;;;5145161;27;20354;-66
2022/09/07 04:05:00;;;;;;;47.88;24.40;;;;;;;;;;5149960;27;20046;-66
2022/09/07 04:07:26;;;;;;;61.95;27.90;;;;;;;;;;5148263;27;20042;-67
2022/09/07 04:09:52;;;;;;;51.17;25.65;;;;;;;;;;5130388;27;20063;-66
2022/09/07 04:12:27;;;;;;;34.65;20.23;;;;;;;;;;5131179;27;20092;-67
2022/09/07 04:14:53;;;;;;;26.00;17.40;;;;;;;;;;5147464;27;20563;-66
2022/09/07 04:17:19;;;;;;;29.98;17.95;;;;;;;;;;5131744;27;20503;-68
2022/09/07 04:19:45;;;;;;;36.83;20.95;;;;;;;;;;5147898;27;20327;-66
2022/09/07 04:22:11;;;;;;;71.47;31.27;;;;;;;;;;5151250;27;20111;-66
2022/09/07 04:24:37;;;;;;;35.65;22.13;;;;;;;;;;5149629;27;20166;-66
2022/09/07 04:27:03;;;;;;;34.40;22.08;;;;;;;;;;5148444;27;20316;-66
2022/09/07 04:29:29;;;;;;;32.05;20.92;;;;;;;;;;5142829;27;20043;-68
2022/09/07 04:31:55;;;;;;;70.15;31.98;;;;;;;;;;5150101;27;20182;-67
2022/09/07 04:34:21;;;;;;;46.28;27.20;;;;;;;;;;5149714;27;20126;-66
2022/09/07 04:36:47;;;;;;;31.13;22.05;;;;;;;;;;5148117;27;20050;-66
2022/09/07 04:39:13;;;;;;;34.97;22.58;;;;;;;;;;5149108;27;20416;-66
2022/09/07 04:41:39;;;;;;;39.78;26.10;;;;;;;;;;5129974;27;20102;-66
2022/09/07 04:44:06;;;;;;;29.35;21.38;;;;;;;;;;5149489;27;20047;-66
2022/09/07 04:46:35;;;;;;;;;;;;;;;;;;5126103;27;20043;-66
2022/09/07 04:49:02;;;;;;;40.42;26.05;;;;;;;;;;5149360;27;20054;-66
2022/09/07 04:51:29;;;;;;;54.22;30.63;;;;;;;;;;5147751;27;20038;-68
2022/09/07 04:53:56;;;;;;;64.03;33.08;;;;;;;;;;5149102;27;20566;-66
2022/09/07 04:56:22;;;;;;;61.03;34.05;;;;;;;;;;5148132;27;20070;-66
2022/09/07 04:58:49;;;;;;;74.55;37.38;;;;;;;;;;5146610;27;20098;-66
2022/09/07 05:01:16;;;;;;;42.78;28.73;;;;;;;;;;5147519;27;20121;-66
2022/09/07 05:03:43;;;;;;;45.50;30.27;;;;;;;;;;5146434;27;20054;-68
2022/09/07 05:06:09;;;;;;;38.33;26.70;;;;;;;;;;5143508;27;20054;-66
2022/09/07 05:08:40;;;;;;;70.40;37.53;;;;;;;;;;5132243;27;20162;-66
2022/09/07 05:11:06;;;;;;;40.72;29.15;;;;;;;;;;5141069;27;20414;-66
2022/09/07 05:13:32;;;;;;;;;;;;;;;;;;5141117;27;20450;-69
2022/09/07 05:15:58;;;;;;;54.85;35.95;;;;;;;;;;5143670;27;19994;-66
2022/09/07 05:18:25;;;;;;;45.05;32.63;;;;;;;;;;5148631;27;20098;-66
2022/09/07 05:20:51;;;;;;;47.83;33.85;;;;;;;;;;5143773;27;20443;-66
2022/09/07 05:23:17;;;;;;;51.55;35.75;;;;;;;;;;5138989;27;20435;-66
2022/09/07 05:25:44;;;;;;;49.72;35.65;;;;;;;;;;5142146;27;20142;-66
2022/09/07 05:28:10;;;;;;;43.38;32.42;;;;;;;;;;5143788;27;20541;-66
2022/09/07 05:30:39;;;;;;;54.03;37.38;;;;;;;;;;5139658;27;20051;-65
2022/09/07 05:33:06;;;;;;;;;;;;;;;;;;5138632;27;20038;-66
2022/09/07 05:35:33;;;;;;;57.95;40.45;;;;;;;;;;5124084;27;19923;-65
2022/09/07 05:37:59;;;;;;;82.85;46.10;;;;;;;;;;5122375;27;20062;-66
2022/09/07 05:40:25;;;;;;;54.00;38.22;;;;;;;;;;5136839;27;20043;-66
2022/09/07 05:42:51;;;;;;;58.90;40.35;;;;;;;;;;5136978;27;20034;-67
2022/09/07 05:45:17;;;;;;;;;;;;;;;;;;5145776;27;20079;-66
2022/09/07 05:47:43;;;;;;;53.03;38.03;;;;;;;;;;5128506;27;20067;-66
2022/09/07 05:50:10;;;;;;;63.85;42.83;;;;;;;;;;5130138;27;20392;-66
2022/09/07 05:52:36;;;;;;;63.25;41.83;;;;;;;;;;5138477;27;20061;-69
2022/09/07 05:55:02;;;;;;;57.33;38.20;;;;;;;;;;5140382;27;20039;-66
2022/09/07 05:57:28;;;;;;;;;;;;;;;;;;5138901;27;20486;-66
2022/09/07 05:59:54;;;;;;;71.55;44.42;;;;;;;;;;5140101;27;20014;-68
2022/09/07 06:02:20;;;;;;;50.05;37.13;;;;;;;;;;5147190;27;20729;-65
2022/09/07 06:04:46;;;;;;;74.22;46.55;;;;;;;;;;5150791;27;20168;-65
2022/09/07 06:07:13;;;;;;;56.63;38.75;;;;;;;;;;5152777;27;20043;-67
2022/09/07 06:09:39;;;;;;;70.60;47.10;;;;;;;;;;5153147;27;20039;-69
2022/09/07 06:12:06;;;;;;;63.28;45.88;;;;;;;;;;5153355;27;20060;-66
2022/09/07 06:14:32;;;;;;;59.53;42.22;;;;;;;;;;5151311;27;20122;-66
2022/09/07 06:16:58;;;;;;;52.45;38.58;;;;;;;;;;5151759;27;20072;-65
2022/09/07 06:19:24;;;;;;;;;;;;;;;;;;5152060;27;20202;-64
2022/09/07 06:21:50;;;;;;;66.63;45.60;;;;;;;;;;5152284;27;20354;-64
2022/09/07 06:24:16;;;;;;;65.43;45.90;;;;;;;;;;5149132;27;20047;-65
2022/09/07 06:26:43;;;;;;;53.58;40.03;;;;;;;;;;5151491;27;20057;-69
2022/09/07 06:29:09;;;;;;;75.90;48.40;;;;;;;;;;5146018;27;20154;-67
2022/09/07 06:31:35;;;;;;;57.03;40.97;;;;;;;;;;5150530;27;20064;-65
2022/09/07 06:34:01;;;;;;;;;;;;;;;;;;5144892;27;20095;-66
2022/09/07 06:36:27;;;;;;;57.78;42.25;;;;;;;;;;5148825;27;19919;-66
2022/09/07 06:38:54;;;;;;;52.25;39.97;;;;;;;;;;5149058;27;20042;-66
2022/09/07 06:41:22;;;;;;;58.08;42.50;;;;;;;;;;5151191;27;20035;-66
2022/09/07 06:43:49;;;;;;;63.22;44.67;;;;;;;;;;5127000;27;20117;-66
2022/09/07 06:46:15;;;;;;;50.40;36.88;;;;;;;;;;5151001;27;20496;-67
2022/09/07 06:48:41;;;;;;;51.90;39.33;;;;;;;;;;5147170;27;20172;-67
2022/09/07 06:51:13;;;;;;;53.30;40.75;;;;;;;;;;5145209;27;20121;-66
2022/09/07 06:53:39;;;;;;;49.50;39.00;;;;;;;;;;5148643;27;20042;-68
2022/09/07 06:56:09;;;;;;;53.80;37.97;;;;;;;;;;5144813;27;20215;-65
2022/09/07 06:58:36;;;;;;;60.63;44.13;;;;;;;;;;5145450;27;20050;-66
2022/09/07 07:01:06;;;;;;;57.45;43.92;;;;;;;;;;5135520;27;20066;-67
2022/09/07 07:03:32;;;;;;;62.22;47.20;;;;;;;;;;5113161;27;20055;-67
2022/09/07 07:05:58;;;;;;;;;;;;;;;;;;5139429;27;20127;-67
2022/09/07 07:08:25;;;;;;;70.65;48.85;;;;;;;;;;5147948;27;19971;-67
2022/09/07 07:10:51;;;;;;;64.60;45.40;;;;;;;;;;5143010;27;20039;-67
2022/09/07 07:13:18;;;;;;;62.47;46.90;;;;;;;;;;5147918;27;20034;-69
2022/09/07 07:15:47;;;;;;;63.47;46.20;;;;;;;;;;5150469;27;20165;-65
2022/09/07 07:18:19;;;;;;;60.50;44.95;;;;;;;;;;5151757;27;20034;-67
2022/09/07 07:20:45;;;;;;;66.75;50.38;;;;;;;;;;5150171;27;20034;-67
2022/09/07 07:23:12;;;;;;;;;;;;;;;;;;5152217;27;20195;-67
2022/09/07 07:25:38;;;;;;;63.60;48.20;;;;;;;;;;5131989;27;20290;-67
2022/09/07 07:28:05;;;;;;;64.63;45.85;;;;;;;;;;5133307;27;20474;-67
2022/09/07 07:30:31;;;;;;;66.13;48.90;;;;;;;;;;5151746;27;20138;-67
2022/09/07 07:33:00;;;;;;;;;;;;;;;;;;5151678;27;20216;-65
2022/09/07 07:35:30;;;;;;;60.38;43.17;;;;;;;;;;5152799;27;20014;-67
2022/09/07 07:37:56;;;;;;;53.60;40.67;;;;;;;;;;5152413;27;20043;-66
2022/09/07 07:40:22;;;;;;;58.20;42.67;;;;;;;;;;5132461;27;20488;-66
2022/09/07 07:42:48;;;;;;;49.78;38.58;;;;;;;;;;5152357;27;20383;-66
2022/09/07 07:45:15;;;;;;;;;;;;;;;;;;5152633;27;20455;-66
2022/09/07 07:47:41;;;;;;;47.10;37.63;;;;;;;;;;5152533;27;19919;-67
2022/09/07 07:50:07;;;;;;;49.03;36.22;;;;;;;;;;5151511;27;20743;-66
2022/09/07 07:52:38;;;;;;;50.38;36.60;;;;;;;;;;5151101;27;20168;-67
2022/09/07 07:55:04;;;;;;;47.70;37.55;;;;;;;;;;5132164;27;20066;-66
2022/09/07 07:57:30;;;;;;;55.33;39.28;;;;;;;;;;5151749;27;20129;-67
2022/09/07 07:59:57;;;;;;;55.30;39.17;;;;;;;;;;5151058;27;20398;-66
2022/09/07 08:02:23;;;;;;;;;;;;;;;;;;5124358;27;20038;-66
2022/09/07 08:04:49;;;;;;;59.17;41.05;;;;;;;;;;5131048;27;19919;-67
2022/09/07 08:07:15;;;;;;;61.33;42.17;;;;;;;;;;5130181;27;20462;-66
2022/09/07 08:09:46;;;;;;;58.53;41.33;;;;;;;;;;5131649;27;20039;-67
2022/09/07 08:12:16;;;;;;;51.92;41.08;;;;;;;;;;5133347;27;20068;-67
2022/09/07 08:14:42;;;;;;;59.67;41.85;;;;;;;;;;5151531;27;20230;-67
2022/09/07 08:17:08;;;;;;;;;;;;;;;;;;5132839;27;20193;-68
2022/09/07 08:19:34;;;;;;;52.67;40.53;;;;;;;;;;5149172;27;20350;-68
2022/09/07 08:22:01;;;;;;;56.38;43.78;;;;;;;;;;5149520;27;20555;-68
2022/09/07 08:24:28;;;;;;;56.90;42.13;;;;;;;;;;5115495;27;20085;-67
2022/09/07 08:26:54;;;;;;;59.63;44.33;;;;;;;;;;5151128;27;20067;-66
2022/09/07 08:29:20;;;;;;;;;;;;;;;;;;5151262;27;20085;-68
2022/09/07 08:31:46;;;;;;;62.67;43.80;;;;;;;;;;5150788;27;19958;-66
2022/09/07 08:34:12;;;;;;;54.92;41.78;;;;;;;;;;5149856;27;20047;-67
2022/09/07 08:36:38;;;;;;;55.28;41.42;;;;;;;;;;5149607;27;20106;-68
2022/09/07 08:39:04;;;;;;;51.80;39.72;;;;;;;;;;5133102;27;20054;-68
2022/09/07 08:41:30;;;;;;;;;;;;;;;;;;5150596;27;20534;-68
2022/09/07 08:44:01;;;;;;;71.20;47.55;;;;;;;;;;5153284;27;20022;-66
2022/09/07 08:46:36;;;;;;;53.80;42.45;;;;;;;;;;5150806;27;20390;-69
2022/09/07 08:49:03;;;;;;;56.30;41.58;;;;;;;;;;5152121;27;20053;-67
2022/09/07 08:51:45;;;;;;;55.67;43.13;;;;;;;;;;5152450;27;20053;-67
2022/09/07 08:54:12;;;;;;;57.17;42.38;;;;;;;;;;5152309;27;20370;-68
2022/09/07 08:56:40;;;;;;;52.50;42.28;;;;;;;;;;5151724;27;20046;-68
2022/09/07 08:59:13;;;;;;;55.20;41.97;;;;;;;;;;5150154;27;20050;-68
2022/09/07 09:01:41;;;;;;;57.50;41.97;;;;;;;;;;5152590;27;20046;-68
2022/09/07 09:04:23;;;;;;;57.65;42.03;;;;;;;;;;5149943;27;20466;-69
2022/09/07 09:07:08;;;;;;;59.38;41.33;;;;;;;;;;5126101;27;20046;-70
2022/09/07 09:09:47;;;;;;;52.28;40.80;;;;;;;;;;5135777;27;20084;-69
2022/09/07 09:12:13;;;;;;;59.13;42.10;;;;;;;;;;5139316;27;20058;-70
2022/09/07 09:14:45;;;;;;;56.33;40.28;;;;;;;;;;5138037;27;20039;-68
2022/09/07 09:17:35;;;;;;;51.72;41.72;;;;;;;;;;5126370;27;20450;-70
2022/09/07 09:20:19;;;;;;;49.20;38.67;;;;;;;;;;5146544;27;20047;-69
2022/09/07 09:22:45;;;;;;;52.25;39.65;;;;;;;;;;5143237;27;20593;-69
2022/09/07 09:25:12;;;;;;;;;;;;;;;;;;5127931;27;20051;-69
2022/09/07 09:27:38;;;;;;;48.70;39.03;;;;;;;;;;5129703;27;20007;-69
2022/09/07 09:30:19;;;;;;;48.80;37.85;;;;;;;;;;5128770;28;20081;-70
2022/09/07 09:32:46;;;;;;;41.33;32.05;;;;;;;;;;5139023;27;20107;-70
2022/09/07 09:35:24;;;;;;;40.80;32.20;;;;;;;;;;5143816;27;20046;-69
2022/09/07 09:37:56;;;;;;;45.35;34.78;;;;;;;;;;5131202;27;20514;-69
2022/09/07 09:40:23;;;;;;;43.35;35.42;;;;;;;;;;5128479;28;20055;-69
2022/09/07 09:43:02;;;;;;;45.50;34.25;;;;;;;;;;5139728;27;20122;-69
2022/09/07 09:45:30;;;;;;;39.95;30.35;;;;;;;;;;5116457;27;20042;-70
2022/09/07 09:47:57;;;;;;;37.10;29.58;;;;;;;;;;5143073;27;20118;-69
2022/09/07 09:50:23;;;;;;;40.90;31.67;;;;;;;;;;5116044;27;20067;-71
2022/09/07 09:52:49;;;;;;;;;;;;;;;;;;5134339;27;20059;-72
2022/09/07 09:55:24;;;;;;;40.53;32.67;;;;;;;;;;5133045;27;19919;-71
2022/09/07 09:57:52;;;;;;;44.13;35.90;;;;;;;;;;5134667;27;20082;-72
2022/09/07 10:00:19;;;;;;;47.38;34.03;;;;;;;;;;5135760;27;20432;-72
2022/09/07 10:02:59;;;;;;;41.88;32.25;;;;;;;;;;5138765;27;20042;-73
2022/09/07 10:05:32;;;;;;;41.22;31.42;;;;;;;;;;5115612;27;20186;-71
2022/09/07 10:08:02;;;;;;;40.10;32.50;;;;;;;;;;5138269;27;20191;-72
2022/09/07 10:10:30;;;;;;;39.45;30.40;;;;;;;;;;5136020;27;20057;-72
2022/09/07 10:12:56;;;;;;;38.92;29.92;;;;;;;;;;5138669;27;20089;-73
2022/09/07 10:15:25;;;;;;;37.75;27.95;;;;;;;;;;5137396;27;20121;-72
2022/09/07 10:17:51;;;;;;;40.13;30.92;;;;;;;;;;5097191;27;20545;-72
2022/09/07 10:20:21;;;;;;;36.80;29.10;;;;;;;;;;5137880;27;20079;-73
2022/09/07 10:22:50;;;;;;;30.80;23.85;;;;;;;;;;5137916;27;20035;-72
2022/09/07 10:25:31;;;;;;;33.83;25.00;;;;;;;;;;5118582;27;20104;-73
2022/09/07 10:28:10;;;;;;;31.45;22.73;;;;;;;;;;5096462;28;20043;-73
2022/09/07 10:30:42;;;;;;;30.67;20.23;;;;;;;;;;5094410;28;20495;-73
2022/09/07 10:33:28;;;;;;;22.75;17.45;;;;;;;;;;5094059;28;20052;-74
2022/09/07 10:35:57;;;;;;;20.77;16.57;;;;;;;;;;5082256;28;20083;-74
2022/09/07 10:38:24;;;;;;;21.75;15.90;;;;;;;;;;5099275;28;20866;-74
2022/09/07 10:41:06;;;;;;;22.20;17.23;;;;;;;;;;5102998;28;20078;-73
2022/09/07 10:43:49;;;;;;;21.23;15.98;;;;;;;;;;5097778;28;20107;-74
2022/09/07 10:46:38;;;;;;;22.08;16.83;;;;;;;;;;5103861;28;20062;-73
2022/09/07 10:49:04;;;;;;;19.73;14.25;;;;;;;;;;5090186;28;20055;-74
2022/09/07 10:51:31;;;;;;;20.30;15.48;;;;;;;;;;5095140;28;20111;-72
2022/09/07 10:54:07;;;;;;;18.88;14.60;;;;;;;;;;5100629;28;20052;-73
2022/09/07 10:56:42;;;;;;;17.65;13.88;;;;;;;;;;5100451;28;20497;-74
2022/09/07 10:59:28;;;;;;;18.13;12.65;;;;;;;;;;5098194;28;20051;-72
2022/09/07 11:02:00;;;;;;;18.77;13.88;;;;;;;;;;5096303;28;21095;-74
2022/09/07 11:04:32;;;;;;;18.52;13.65;;;;;;;;;;5095995;28;20132;-72
2022/09/07 11:07:13;;;;;;;17.70;12.93;;;;;;;;;;5098169;28;20047;-73
2022/09/07 11:09:47;;;;;;;18.15;12.73;;;;;;;;;;5097733;28;20070;-76
2022/09/07 11:12:13;;;;;;;16.77;11.73;;;;;;;;;;5098540;28;20098;-74
2022/09/07 11:14:39;;;;;;;;;;;;;;;;;;5099094;28;20095;-75
2022/09/07 11:17:12;;;;;;;18.90;11.60;;;;;;;;;;5096943;28;19957;-73
2022/09/07 11:19:44;;;;;;;18.30;12.50;;;;;;;;;;5094271;27;20356;-74
2022/09/07 11:22:10;;;;;;;20.27;12.75;;;;;;;;;;5106850;28;22005;-75
2022/09/07 11:24:40;;;;;;;16.08;12.10;;;;;;;;;;5105569;28;20248;-74
2022/09/07 11:27:09;;;;;;;17.77;12.35;;;;;;;;;;5130879;27;20485;-72
2022/09/07 11:29:54;;;;;;;17.50;12.27;;;;;;;;;;5137638;27;20490;-72
2022/09/07 11:32:36;;;;;;;16.65;10.13;;;;;;;;;;5121906;27;20510;-73
2022/09/07 11:35:06;;;;;;;15.55;10.07;;;;;;;;;;5129267;27;20106;-72
2022/09/07 11:37:38;;;;;;;16.05;11.40;;;;;;;;;;5136016;27;20071;-73
2022/09/07 11:40:04;;;;;;;17.52;10.88;;;;;;;;;;5130956;27;20047;-73
2022/09/07 11:42:30;;;;;;;;;;;;;;;;;;5142973;27;20043;-72
2022/09/07 11:44:59;;;;;;;13.93;9.60;;;;;;;;;;5130258;27;19942;-73
2022/09/07 11:47:33;;;;;;;15.63;9.40;;;;;;;;;;5133567;27;20381;-76
2022/09/07 11:49:59;;;;;;;14.35;7.97;;;;;;;;;;5143467;27;20046;-76
2022/09/07 11:52:25;;;;;;;;;;;;;;;;;;5128857;27;20211;-75
2022/09/07 11:54:54;;;;;;;12.63;6.30;;;;;;;;;;5126710;27;20021;-70
2022/09/07 11:57:26;;;;;;;11.50;5.68;;;;;;;;;;5123742;27;20083;-80
2022/09/07 12:00:11;;;;;;;13.05;5.63;;;;;;;;;;5128848;27;20082;-74
2022/09/07 12:02:52;;;;;;;10.82;4.65;;;;;;;;;;5145465;27;20091;-75
2022/09/07 12:05:40;;;;;;;10.70;5.30;;;;;;;;;;5144293;27;20054;-76
2022/09/07 12:08:15;;;;;;;10.32;4.95;;;;;;;;;;5142836;27;20095;-78
2022/09/07 12:10:53;;;;;;;9.00;4.22;;;;;;;;;;5149326;27;20054;-76
2022/09/07 12:13:31;;;;;;;9.77;4.40;;;;;;;;;;5138801;27;20053;-67
2022/09/07 12:16:11;;;;;;;10.85;4.50;;;;;;;;;;5122403;27;20043;-76
2022/09/07 12:18:49;;;;;;;9.48;3.80;;;;;;;;;;5145052;27;20046;-72
2022/09/07 12:21:31;;;;;;;10.20;3.85;;;;;;;;;;5147614;27;20061;-70
2022/09/07 12:23:57;;;;;;;11.05;3.90;;;;;;;;;;5124329;27;20050;-69
2022/09/07 12:26:24;;;;;;;;;;;;;;;;;;5129119;27;20482;-70
2022/09/07 12:28:50;;;;;;;10.50;3.88;;;;;;;;;;5146504;27;19970;-71
2022/09/07 12:31:16;;;;;;;;;;;;;;;;;;5150639;27;20082;-73
2022/09/07 12:33:42;;;;;;;9.15;3.58;;;;;;;;;;5143981;27;19976;-72
2022/09/07 12:36:08;;;;;;;;;;;;;;;;;;5125451;27;20043;-75
2022/09/07 12:38:53;;;;;;;10.77;3.70;;;;;;;;;;5127305;27;19971;-74
2022/09/07 12:41:21;;;;;;;7.90;3.30;;;;;;;;;;5129733;27;20047;-72
2022/09/07 12:43:50;;;;;;;9.40;3.45;;;;;;;;;;5139316;27;20358;-68
2022/09/07 12:46:36;;;;;;;8.05;3.42;;;;;;;;;;5147234;27;20038;-71
2022/09/07 12:49:15;;;;;;;8.77;3.80;;;;;;;;;;5112808;27;20070;-71
2022/09/07 12:51:41;;;;;;;7.72;3.17;;;;;;;;;;5147075;27;20387;-72
2022/09/07 12:54:21;;;;;;;9.70;3.22;;;;;;;;;;5147060;27;20042;-65
2022/09/07 12:56:57;;;;;;;10.95;3.40;;;;;;;;;;5147146;27;20118;-67
2022/09/07 12:59:48;;;;;;;9.38;3.42;;;;;;;;;;5148957;27;20042;-70
2022/09/07 13:02:24;;;;;;;9.48;3.85;;;;;;;;;;5131072;27;20542;-73
2022/09/07 13:05:02;;;;;;;9.68;3.78;;;;;;;;;;5129194;27;20468;-73
2022/09/07 13:07:57;;;;;;;9.80;4.10;;;;;;;;;;5143252;27;20096;-73
2022/09/07 13:10:31;;;;;;;9.98;3.67;;;;;;;;;;5115761;27;20494;-74
2022/09/07 13:13:17;;;;;;;9.65;3.75;;;;;;;;;;5144015;27;20176;-72
2022/09/07 13:15:50;;;;;;;10.07;3.58;;;;;;;;;;5121502;27;20054;-74
2022/09/07 13:18:19;;;;;;;8.70;3.83;;;;;;;;;;5134446;27;20036;-72
2022/09/07 13:21:05;;;;;;;9.52;3.10;;;;;;;;;;5132712;27;20429;-73
2022/09/07 13:23:33;;;;;;;8.23;3.20;;;;;;;;;;5135348;27;20127;-73
2022/09/07 13:25:59;;;;;;;10.23;3.38;;;;;;;;;;5130383;27;20059;-79
2022/09/07 13:28:31;;;;;;;7.90;3.20;;;;;;;;;;5144237;27;20051;-78
2022/09/07 13:30:58;;;;;;;8.45;3.25;;;;;;;;;;5124999;27;20050;-77
2022/09/07 13:33:25;;;;;;;7.90;3.20;;;;;;;;;;5143525;27;20526;-73
2022/09/07 13:35:54;;;;;;;8.13;3.28;;;;;;;;;;5140026;27;20529;-72
2022/09/07 13:38:21;;;;;;;10.05;3.50;;;;;;;;;;5143200;27;20497;-73
2022/09/07 13:40:49;;;;;;;9.35;3.42;;;;;;;;;;5147426;27;20117;-74
2022/09/07 13:43:18;;;;;;;11.18;3.67;;;;;;;;;;5146473;27;20347;-74
2022/09/07 13:45:53;;;;;;;8.63;3.22;;;;;;;;;;5117481;27;20078;-73
2022/09/07 13:48:20;;;;;;;8.85;3.47;;;;;;;;;;5139381;27;20054;-76
2022/09/07 13:50:45;;;;;;;;;;;;;;;;;;5148454;27;20046;-74
2022/09/07 13:53:12;;;;;;;9.40;3.40;;;;;;;;;;5123351;27;20016;-76
2022/09/07 13:55:37;;;;;;;;;;;;;;;;;;5145240;27;20084;-73
2022/09/07 13:58:17;;;;;;;8.55;3.40;;;;;;;;;;5145312;27;19919;-76
2022/09/07 14:00:54;;;;;;;8.10;3.10;;;;;;;;;;5131009;27;20039;-79
2022/09/07 14:03:20;;;;;;;;;;;;;;;;;;5143423;27;20054;-76
2022/09/07 14:05:46;;;;;;;7.80;3.35;;;;;;;;;;5136012;27;19919;-73
2022/09/07 14:08:12;;;;;;;;;;;;;;;;;;5145007;27;20031;-74
2022/09/07 14:10:47;;;;;;;8.95;3.28;;;;;;;;;;5134461;27;19976;-73
2022/09/07 14:13:13;;;;;;;9.80;3.67;;;;;;;;;;5116904;27;20062;-74
2022/09/07 14:15:47;;;;;;;7.78;3.10;;;;;;;;;;5132922;27;20046;-78
2022/09/07 14:18:15;;;;;;;9.75;3.25;;;;;;;;;;5122593;27;20058;-74
2022/09/07 14:20:44;;;;;;;10.85;3.22;;;;;;;;;;5140322;27;20042;-76
2022/09/07 14:23:12;;;;;;;8.70;3.20;;;;;;;;;;5135927;27;20243;-74
2022/09/07 14:25:38;;;;;;;9.40;3.20;;;;;;;;;;5142827;27;20062;-73
2022/09/07 14:28:04;;;;;;;7.60;2.88;;;;;;;;;;5148143;27;20046;-75
2022/09/07 14:30:31;;;;;;;;;;;;;;;;;;5137620;27;20405;-75
2022/09/07 14:33:08;;;;;;;7.75;2.90;;;;;;;;;;5136629;27;20422;-74
2022/09/07 14:35:36;;;;;;;8.75;3.13;;;;;;;;;;5130557;27;20411;-75
2022/09/07 14:38:18;;;;;;;9.07;3.00;;;;;;;;;;5145433;27;20057;-76
2022/09/07 14:40:44;;;;;;;8.32;3.00;;;;;;;;;;5142798;27;20442;-74
2022/09/07 14:43:29;;;;;;;10.23;3.00;;;;;;;;;;5134746;27;20079;-76
2022/09/07 14:46:09;;;;;;;8.40;2.80;;;;;;;;;;5140900;27;20054;-75
2022/09/07 14:48:37;;;;;;;8.52;3.00;;;;;;;;;;5147960;27;20481;-75